SNCO2: N. Canadian River at Shawnee, OK

Data processed at Sat Nov 17 2018 22:02


All information presented herein is the property of the government of the United States of America and may be revised or deleted at any time without prior notice.
Dissemination of this information without the expressed written consent of the Public Affairs Office, Tulsa District U.S. Army Corps of Engineers is strictly prohibited.
These data are gathered electronically and, as presented, have not undergone any form of quality control. These data are not guaranteed to be valid or correct.
Go to home page.
Go to station list.
Go to home page.

Upstream stations:

Downstream station:
Previous Day
Next Day
Current Day
    
SHEF ID:       SNCO2     North Canadian River at Shawnee,
STATION TYPE:  

                STAGE  RIV-FLOW  BAT-LOAD
                   ft       cfs      volt
              Ccp-Rev   Ccp-Rev   Ccp-Rev
(US/Central)
11/17 00:00     11.20      1002     12.77
11/17 01:00     11.20      1002     12.71
11/17 02:00     11.20      1002     12.71
11/17 03:00     11.20      1002     12.71
11/17 04:00     11.19       996     12.71
11/17 05:00     11.19       996     12.65
11/17 06:00     11.19       996     12.65
11/17 07:00     11.21      1009     12.65
11/17 08:00     11.21      1009     12.71
11/17 09:00     11.20      1002     13.36
11/17 10:00     11.20      1002     13.48
11/17 11:00     11.17       982     13.48
11/17 12:00     11.19       996     13.48
11/17 13:00     11.23      1023     13.48
11/17 14:00     11.26      1044     13.42
11/17 15:00     11.28      1058     13.53
11/17 16:00     11.26      1044     13.48
11/17 17:00     11.25      1037     13.24
11/17 18:00     11.18       989     13.00
11/17 19:00     11.35      1108     12.95
11/17 20:00     11.33      1093     12.89
11/17 21:00     11.31      1079     12.83
11/17 22:00      ----      ----      ----
11/17 23:00      ----      ----      ----